sensor_id;sensor_type;location;lat;lon;timestamp;P1;durP1;ratioP1;P2;durP2;ratioP2
11537;SDS011;50159;49.426;11.182;2022-12-07T00:01:34;8.07;;;7.27;;
11537;SDS011;50159;49.426;11.182;2022-12-07T00:04:08;7.67;;;6.93;;
11537;SDS011;50159;49.426;11.182;2022-12-07T00:06:39;7.50;;;6.47;;
11537;SDS011;50159;49.426;11.182;2022-12-07T00:09:13;6.60;;;6.10;;
11537;SDS011;50159;49.426;11.182;2022-12-07T00:11:43;7.67;;;6.90;;
11537;SDS011;50159;49.426;11.182;2022-12-07T00:14:12;6.87;;;6.27;;
11537;SDS011;50159;49.426;11.182;2022-12-07T00:16:42;6.73;;;6.13;;
11537;SDS011;50159;49.426;11.182;2022-12-07T00:19:11;7.60;;;6.90;;
11537;SDS011;50159;49.426;11.182;2022-12-07T00:21:39;6.77;;;6.27;;
11537;SDS011;50159;49.426;11.182;2022-12-07T00:24:07;6.97;;;6.37;;
11537;SDS011;50159;49.426;11.182;2022-12-07T00:26:36;7.87;;;7.10;;
11537;SDS011;50159;49.426;11.182;2022-12-07T00:29:06;7.60;;;6.90;;
11537;SDS011;50159;49.426;11.182;2022-12-07T00:31:41;7.37;;;6.70;;
11537;SDS011;50159;49.426;11.182;2022-12-07T00:36:41;7.20;;;6.60;;
11537;SDS011;50159;49.426;11.182;2022-12-07T00:39:07;7.20;;;6.50;;
11537;SDS011;50159;49.426;11.182;2022-12-07T00:41:34;7.57;;;6.87;;
11537;SDS011;50159;49.426;11.182;2022-12-07T00:44:01;6.73;;;6.17;;
11537;SDS011;50159;49.426;11.182;2022-12-07T00:46:28;7.70;;;7.07;;
11537;SDS011;50159;49.426;11.182;2022-12-07T00:48:55;7.20;;;6.60;;
11537;SDS011;50159;49.426;11.182;2022-12-07T00:51:23;7.23;;;6.53;;
11537;SDS011;50159;49.426;11.182;2022-12-07T00:53:51;8.63;;;7.13;;
11537;SDS011;50159;49.426;11.182;2022-12-07T00:56:22;8.00;;;7.30;;
11537;SDS011;50159;49.426;11.182;2022-12-07T00:58:52;7.90;;;7.20;;
11537;SDS011;50159;49.426;11.182;2022-12-07T01:01:28;7.50;;;6.80;;
11537;SDS011;50159;49.426;11.182;2022-12-07T01:04:02;7.80;;;7.10;;
11537;SDS011;50159;49.426;11.182;2022-12-07T01:06:29;7.00;;;6.30;;
11537;SDS011;50159;49.426;11.182;2022-12-07T01:08:57;6.50;;;6.00;;
11537;SDS011;50159;49.426;11.182;2022-12-07T01:11:26;7.40;;;6.73;;
11537;SDS011;50159;49.426;11.182;2022-12-07T01:13:55;8.33;;;7.47;;
11537;SDS011;50159;49.426;11.182;2022-12-07T01:16:25;8.23;;;7.43;;
11537;SDS011;50159;49.426;11.182;2022-12-07T01:18:55;8.40;;;7.60;;
11537;SDS011;50159;49.426;11.182;2022-12-07T01:21:31;7.67;;;6.97;;
11537;SDS011;50159;49.426;11.182;2022-12-07T01:24:02;7.50;;;6.77;;
11537;SDS011;50159;49.426;11.182;2022-12-07T01:26:32;7.07;;;6.50;;
11537;SDS011;50159;49.426;11.182;2022-12-07T01:28:59;8.73;;;7.83;;
11537;SDS011;50159;49.426;11.182;2022-12-07T01:31:27;7.47;;;6.87;;
11537;SDS011;50159;49.426;11.182;2022-12-07T01:33:55;7.57;;;6.87;;
11537;SDS011;50159;49.426;11.182;2022-12-07T01:36:25;8.30;;;7.60;;
11537;SDS011;50159;49.426;11.182;2022-12-07T01:39:00;8.93;;;8.07;;
11537;SDS011;50159;49.426;11.182;2022-12-07T01:41:32;8.10;;;7.30;;
11537;SDS011;50159;49.426;11.182;2022-12-07T01:46:59;11.23;;;7.20;;
11537;SDS011;50159;49.426;11.182;2022-12-07T01:49:45;7.70;;;7.00;;
11537;SDS011;50159;49.426;11.182;2022-12-07T01:52:25;8.50;;;7.60;;
11537;SDS011;50159;49.426;11.182;2022-12-07T01:55:00;8.50;;;7.70;;
11537;SDS011;50159;49.426;11.182;2022-12-07T01:57:36;8.73;;;7.93;;
11537;SDS011;50159;49.426;11.182;2022-12-07T02:00:08;9.57;;;8.60;;
11537;SDS011;50159;49.426;11.182;2022-12-07T02:02:41;8.50;;;7.67;;
11537;SDS011;50159;49.426;11.182;2022-12-07T02:05:17;11.60;;;9.73;;
11537;SDS011;50159;49.426;11.182;2022-12-07T02:07:45;9.03;;;8.03;;
11537;SDS011;50159;49.426;11.182;2022-12-07T02:10:25;9.20;;;8.30;;
11537;SDS011;50159;49.426;11.182;2022-12-07T02:13:00;8.47;;;7.67;;
11537;SDS011;50159;49.426;11.182;2022-12-07T02:15:34;8.50;;;7.53;;
11537;SDS011;50159;49.426;11.182;2022-12-07T02:18:44;8.07;;;7.37;;
11537;SDS011;50159;49.426;11.182;2022-12-07T02:21:38;11.37;;;8.17;;
11537;SDS011;50159;49.426;11.182;2022-12-07T02:30:12;9.00;;;8.10;;
11537;SDS011;50159;49.426;11.182;2022-12-07T02:35:19;8.20;;;7.50;;
11537;SDS011;50159;49.426;11.182;2022-12-07T02:43:43;9.07;;;7.67;;
11537;SDS011;50159;49.426;11.182;2022-12-07T02:46:17;9.67;;;8.63;;
11537;SDS011;50159;49.426;11.182;2022-12-07T02:48:51;10.60;;;9.37;;
11537;SDS011;50159;49.426;11.182;2022-12-07T02:51:25;9.53;;;8.17;;
11537;SDS011;50159;49.426;11.182;2022-12-07T02:53:56;12.63;;;9.17;;
11537;SDS011;50159;49.426;11.182;2022-12-07T02:56:26;9.10;;;8.20;;
11537;SDS011;50159;49.426;11.182;2022-12-07T03:05:09;9.50;;;8.60;;
11537;SDS011;50159;49.426;11.182;2022-12-07T03:08:09;10.50;;;9.37;;
11537;SDS011;50159;49.426;11.182;2022-12-07T03:13:34;10.27;;;9.10;;
11537;SDS011;50159;49.426;11.182;2022-12-07T03:16:25;11.03;;;9.50;;
11537;SDS011;50159;49.426;11.182;2022-12-07T03:19:01;10.07;;;9.07;;
11537;SDS011;50159;49.426;11.182;2022-12-07T03:21:37;10.07;;;9.00;;
11537;SDS011;50159;49.426;11.182;2022-12-07T03:24:10;11.30;;;9.23;;
11537;SDS011;50159;49.426;11.182;2022-12-07T03:26:51;9.77;;;8.63;;
11537;SDS011;50159;49.426;11.182;2022-12-07T03:29:37;10.23;;;8.27;;
11537;SDS011;50159;49.426;11.182;2022-12-07T03:32:38;9.10;;;8.10;;
11537;SDS011;50159;49.426;11.182;2022-12-07T03:35:22;11.43;;;9.20;;
11537;SDS011;50159;49.426;11.182;2022-12-07T03:37:56;9.83;;;8.67;;
11537;SDS011;50159;49.426;11.182;2022-12-07T03:40:57;9.43;;;8.33;;
11537;SDS011;50159;49.426;11.182;2022-12-07T03:43:34;9.93;;;8.70;;
11537;SDS011;50159;49.426;11.182;2022-12-07T03:49:05;9.93;;;8.93;;
11537;SDS011;50159;49.426;11.182;2022-12-07T03:55:28;9.63;;;8.60;;
11537;SDS011;50159;49.426;11.182;2022-12-07T03:58:02;10.10;;;8.53;;
11537;SDS011;50159;49.426;11.182;2022-12-07T04:00:36;10.57;;;9.17;;
11537;SDS011;50159;49.426;11.182;2022-12-07T04:03:03;11.73;;;9.53;;
11537;SDS011;50159;49.426;11.182;2022-12-07T04:05:31;12.30;;;9.70;;
11537;SDS011;50159;49.426;11.182;2022-12-07T04:07:58;10.00;;;8.93;;
11537;SDS011;50159;49.426;11.182;2022-12-07T04:10:24;12.30;;;8.83;;
11537;SDS011;50159;49.426;11.182;2022-12-07T04:12:51;9.67;;;8.57;;
11537;SDS011;50159;49.426;11.182;2022-12-07T04:15:18;10.00;;;8.60;;
11537;SDS011;50159;49.426;11.182;2022-12-07T04:17:45;9.93;;;8.93;;
11537;SDS011;50159;49.426;11.182;2022-12-07T04:20:12;10.87;;;9.37;;
11537;SDS011;50159;49.426;11.182;2022-12-07T04:22:39;11.60;;;8.67;;
11537;SDS011;50159;49.426;11.182;2022-12-07T04:25:06;10.13;;;9.10;;
11537;SDS011;50159;49.426;11.182;2022-12-07T04:27:33;11.33;;;9.17;;
11537;SDS011;50159;49.426;11.182;2022-12-07T04:30:00;9.60;;;8.30;;
11537;SDS011;50159;49.426;11.182;2022-12-07T04:32:27;8.73;;;7.93;;
11537;SDS011;50159;49.426;11.182;2022-12-07T04:34:54;8.90;;;8.00;;
11537;SDS011;50159;49.426;11.182;2022-12-07T04:37:21;9.60;;;8.60;;
11537;SDS011;50159;49.426;11.182;2022-12-07T04:39:49;10.60;;;8.50;;
11537;SDS011;50159;49.426;11.182;2022-12-07T04:42:16;11.60;;;8.77;;
11537;SDS011;50159;49.426;11.182;2022-12-07T04:44:43;9.30;;;8.20;;
11537;SDS011;50159;49.426;11.182;2022-12-07T04:47:10;9.97;;;8.93;;
11537;SDS011;50159;49.426;11.182;2022-12-07T04:49:37;10.13;;;8.47;;
11537;SDS011;50159;49.426;11.182;2022-12-07T04:52:04;10.27;;;8.97;;
11537;SDS011;50159;49.426;11.182;2022-12-07T04:54:31;11.47;;;8.37;;
11537;SDS011;50159;49.426;11.182;2022-12-07T04:56:57;13.27;;;9.27;;
11537;SDS011;50159;49.426;11.182;2022-12-07T04:59:25;11.70;;;9.20;;
11537;SDS011;50159;49.426;11.182;2022-12-07T05:01:51;10.47;;;9.10;;
11537;SDS011;50159;49.426;11.182;2022-12-07T05:04:18;11.07;;;8.53;;
11537;SDS011;50159;49.426;11.182;2022-12-07T05:06:45;12.43;;;9.20;;
11537;SDS011;50159;49.426;11.182;2022-12-07T05:09:11;11.20;;;9.23;;
11537;SDS011;50159;49.426;11.182;2022-12-07T05:11:38;11.33;;;9.27;;
11537;SDS011;50159;49.426;11.182;2022-12-07T05:16:45;11.47;;;9.70;;
11537;SDS011;50159;49.426;11.182;2022-12-07T05:19:16;10.60;;;9.33;;
11537;SDS011;50159;49.426;11.182;2022-12-07T05:21:45;12.97;;;9.30;;
11537;SDS011;50159;49.426;11.182;2022-12-07T05:24:12;13.00;;;9.97;;
11537;SDS011;50159;49.426;11.182;2022-12-07T05:26:41;10.40;;;9.17;;
11537;SDS011;50159;49.426;11.182;2022-12-07T05:29:13;12.30;;;9.70;;
11537;SDS011;50159;49.426;11.182;2022-12-07T05:31:43;10.10;;;9.03;;
11537;SDS011;50159;49.426;11.182;2022-12-07T05:34:10;10.80;;;9.60;;
11537;SDS011;50159;49.426;11.182;2022-12-07T05:36:37;12.23;;;9.30;;
11537;SDS011;50159;49.426;11.182;2022-12-07T05:39:04;12.17;;;8.63;;
11537;SDS011;50159;49.426;11.182;2022-12-07T05:41:31;10.20;;;9.20;;
11537;SDS011;50159;49.426;11.182;2022-12-07T05:44:16;11.60;;;8.77;;
11537;SDS011;50159;49.426;11.182;2022-12-07T05:46:43;12.17;;;9.80;;
11537;SDS011;50159;49.426;11.182;2022-12-07T05:49:09;10.40;;;8.67;;
11537;SDS011;50159;49.426;11.182;2022-12-07T05:51:36;11.53;;;9.83;;
11537;SDS011;50159;49.426;11.182;2022-12-07T05:54:03;11.87;;;10.23;;
11537;SDS011;50159;49.426;11.182;2022-12-07T05:56:30;13.63;;;10.27;;
11537;SDS011;50159;49.426;11.182;2022-12-07T05:58:57;12.90;;;9.90;;
11537;SDS011;50159;49.426;11.182;2022-12-07T06:01:42;12.53;;;9.90;;
11537;SDS011;50159;49.426;11.182;2022-12-07T06:04:09;10.83;;;9.67;;
11537;SDS011;50159;49.426;11.182;2022-12-07T06:06:36;13.20;;;9.50;;
11537;SDS011;50159;49.426;11.182;2022-12-07T06:09:03;12.33;;;10.33;;
11537;SDS011;50159;49.426;11.182;2022-12-07T06:11:30;13.90;;;11.00;;
11537;SDS011;50159;49.426;11.182;2022-12-07T06:14:15;12.40;;;10.60;;
11537;SDS011;50159;49.426;11.182;2022-12-07T06:16:41;13.57;;;10.57;;
11537;SDS011;50159;49.426;11.182;2022-12-07T06:19:11;12.90;;;10.57;;
11537;SDS011;50159;49.426;11.182;2022-12-07T06:21:41;13.40;;;11.47;;
11537;SDS011;50159;49.426;11.182;2022-12-07T06:24:09;13.13;;;11.23;;
11537;SDS011;50159;49.426;11.182;2022-12-07T06:26:38;14.53;;;11.13;;
11537;SDS011;50159;49.426;11.182;2022-12-07T06:29:06;16.93;;;11.20;;
11537;SDS011;50159;49.426;11.182;2022-12-07T06:31:35;17.30;;;11.87;;
11537;SDS011;50159;49.426;11.182;2022-12-07T06:34:03;16.27;;;12.83;;
11537;SDS011;50159;49.426;11.182;2022-12-07T06:36:34;17.13;;;12.27;;
11537;SDS011;50159;49.426;11.182;2022-12-07T06:39:02;15.13;;;11.70;;
11537;SDS011;50159;49.426;11.182;2022-12-07T06:41:31;14.03;;;10.77;;
11537;SDS011;50159;49.426;11.182;2022-12-07T06:43:58;16.50;;;12.37;;
11537;SDS011;50159;49.426;11.182;2022-12-07T06:46:24;14.33;;;11.83;;
11537;SDS011;50159;49.426;11.182;2022-12-07T06:48:52;17.90;;;12.27;;
11537;SDS011;50159;49.426;11.182;2022-12-07T06:51:19;14.83;;;11.70;;
11537;SDS011;50159;49.426;11.182;2022-12-07T06:53:45;17.60;;;12.83;;
11537;SDS011;50159;49.426;11.182;2022-12-07T06:56:12;16.03;;;11.80;;
11537;SDS011;50159;49.426;11.182;2022-12-07T06:58:39;15.60;;;12.50;;
11537;SDS011;50159;49.426;11.182;2022-12-07T07:01:10;18.20;;;12.80;;
11537;SDS011;50159;49.426;11.182;2022-12-07T07:03:39;17.50;;;12.83;;
11537;SDS011;50159;49.426;11.182;2022-12-07T07:06:07;18.93;;;13.10;;
11537;SDS011;50159;49.426;11.182;2022-12-07T07:08:35;21.10;;;13.27;;
11537;SDS011;50159;49.426;11.182;2022-12-07T07:11:03;14.47;;;11.97;;
11537;SDS011;50159;49.426;11.182;2022-12-07T07:13:31;15.13;;;12.33;;
11537;SDS011;50159;49.426;11.182;2022-12-07T07:15:58;21.87;;;14.30;;
11537;SDS011;50159;49.426;11.182;2022-12-07T07:18:26;22.60;;;13.70;;
11537;SDS011;50159;49.426;11.182;2022-12-07T07:20:54;19.40;;;13.93;;
11537;SDS011;50159;49.426;11.182;2022-12-07T07:23:21;20.13;;;14.23;;
11537;SDS011;50159;49.426;11.182;2022-12-07T07:25:49;26.10;;;17.00;;
11537;SDS011;50159;49.426;11.182;2022-12-07T07:28:16;22.07;;;15.23;;
11537;SDS011;50159;49.426;11.182;2022-12-07T07:30:43;20.43;;;14.60;;
11537;SDS011;50159;49.426;11.182;2022-12-07T07:33:10;20.87;;;15.00;;
11537;SDS011;50159;49.426;11.182;2022-12-07T07:35:39;20.80;;;14.57;;
11537;SDS011;50159;49.426;11.182;2022-12-07T07:38:06;20.07;;;14.90;;
11537;SDS011;50159;49.426;11.182;2022-12-07T07:40:33;18.53;;;14.30;;
11537;SDS011;50159;49.426;11.182;2022-12-07T07:43:00;23.90;;;14.97;;
11537;SDS011;50159;49.426;11.182;2022-12-07T07:45:27;19.03;;;14.00;;
11537;SDS011;50159;49.426;11.182;2022-12-07T07:47:54;21.57;;;13.83;;
11537;SDS011;50159;49.426;11.182;2022-12-07T07:50:21;17.03;;;13.40;;
11537;SDS011;50159;49.426;11.182;2022-12-07T07:52:48;15.97;;;11.83;;
11537;SDS011;50159;49.426;11.182;2022-12-07T07:55:16;14.33;;;12.03;;
11537;SDS011;50159;49.426;11.182;2022-12-07T07:57:42;21.17;;;14.70;;
11537;SDS011;50159;49.426;11.182;2022-12-07T08:00:15;17.80;;;13.17;;
11537;SDS011;50159;49.426;11.182;2022-12-07T08:02:42;15.20;;;11.60;;
11537;SDS011;50159;49.426;11.182;2022-12-07T08:05:10;20.40;;;13.43;;
11537;SDS011;50159;49.426;11.182;2022-12-07T08:07:38;20.47;;;13.23;;
11537;SDS011;50159;49.426;11.182;2022-12-07T08:10:06;21.50;;;14.17;;
11537;SDS011;50159;49.426;11.182;2022-12-07T08:12:36;21.33;;;13.37;;
11537;SDS011;50159;49.426;11.182;2022-12-07T08:15:28;21.13;;;14.10;;
11537;SDS011;50159;49.426;11.182;2022-12-07T08:17:57;19.43;;;13.83;;
11537;SDS011;50159;49.426;11.182;2022-12-07T08:20:24;20.87;;;14.17;;
11537;SDS011;50159;49.426;11.182;2022-12-07T08:22:52;20.77;;;14.27;;
11537;SDS011;50159;49.426;11.182;2022-12-07T08:25:18;23.90;;;14.43;;
11537;SDS011;50159;49.426;11.182;2022-12-07T08:27:46;19.60;;;14.20;;
11537;SDS011;50159;49.426;11.182;2022-12-07T08:30:14;13.83;;;12.20;;
11537;SDS011;50159;49.426;11.182;2022-12-07T08:32:41;20.27;;;14.07;;
11537;SDS011;50159;49.426;11.182;2022-12-07T08:35:10;22.77;;;15.07;;
11537;SDS011;50159;49.426;11.182;2022-12-07T08:37:38;19.63;;;13.53;;
11537;SDS011;50159;49.426;11.182;2022-12-07T08:40:06;18.17;;;13.03;;
11537;SDS011;50159;49.426;11.182;2022-12-07T08:42:35;20.40;;;14.30;;
11537;SDS011;50159;49.426;11.182;2022-12-07T08:45:06;25.67;;;13.27;;
11537;SDS011;50159;49.426;11.182;2022-12-07T08:47:41;18.57;;;14.00;;
11537;SDS011;50159;49.426;11.182;2022-12-07T08:50:22;19.53;;;14.17;;
11537;SDS011;50159;49.426;11.182;2022-12-07T08:52:53;18.30;;;13.93;;
11537;SDS011;50159;49.426;11.182;2022-12-07T08:55:24;17.20;;;13.37;;
11537;SDS011;50159;49.426;11.182;2022-12-07T08:57:53;21.77;;;13.80;;
11537;SDS011;50159;49.426;11.182;2022-12-07T09:00:20;23.30;;;14.97;;
11537;SDS011;50159;49.426;11.182;2022-12-07T09:02:47;17.43;;;13.00;;
11537;SDS011;50159;49.426;11.182;2022-12-07T09:05:14;18.47;;;13.63;;
11537;SDS011;50159;49.426;11.182;2022-12-07T09:07:46;17.37;;;13.07;;
11537;SDS011;50159;49.426;11.182;2022-12-07T09:10:18;22.30;;;13.27;;
11537;SDS011;50159;49.426;11.182;2022-12-07T09:12:45;19.20;;;13.50;;
11537;SDS011;50159;49.426;11.182;2022-12-07T09:15:12;17.03;;;12.27;;
11537;SDS011;50159;49.426;11.182;2022-12-07T09:17:38;19.77;;;12.70;;
11537;SDS011;50159;49.426;11.182;2022-12-07T09:20:05;15.83;;;12.23;;
11537;SDS011;50159;49.426;11.182;2022-12-07T09:22:33;15.13;;;11.63;;
11537;SDS011;50159;49.426;11.182;2022-12-07T09:25:00;17.60;;;12.40;;
11537;SDS011;50159;49.426;11.182;2022-12-07T09:27:30;15.00;;;11.53;;
11537;SDS011;50159;49.426;11.182;2022-12-07T09:29:57;14.37;;;11.53;;
11537;SDS011;50159;49.426;11.182;2022-12-07T09:32:24;14.23;;;10.73;;
11537;SDS011;50159;49.426;11.182;2022-12-07T09:34:51;17.37;;;10.77;;
11537;SDS011;50159;49.426;11.182;2022-12-07T09:37:18;14.63;;;10.73;;
11537;SDS011;50159;49.426;11.182;2022-12-07T09:39:45;15.80;;;10.93;;
11537;SDS011;50159;49.426;11.182;2022-12-07T09:42:28;18.33;;;11.13;;
11537;SDS011;50159;49.426;11.182;2022-12-07T09:45:04;15.30;;;12.00;;
11537;SDS011;50159;49.426;11.182;2022-12-07T09:47:38;22.97;;;13.73;;
11537;SDS011;50159;49.426;11.182;2022-12-07T09:50:05;15.87;;;10.73;;
11537;SDS011;50159;49.426;11.182;2022-12-07T09:52:39;16.50;;;12.80;;
11537;SDS011;50159;49.426;11.182;2022-12-07T09:55:12;16.67;;;11.97;;
11537;SDS011;50159;49.426;11.182;2022-12-07T09:57:41;13.10;;;10.93;;
11537;SDS011;50159;49.426;11.182;2022-12-07T10:00:13;17.10;;;11.93;;
11537;SDS011;50159;49.426;11.182;2022-12-07T10:02:44;14.97;;;11.47;;
11537;SDS011;50159;49.426;11.182;2022-12-07T10:05:29;13.17;;;10.77;;
11537;SDS011;50159;49.426;11.182;2022-12-07T10:08:17;19.43;;;13.63;;
11537;SDS011;50159;49.426;11.182;2022-12-07T10:10:45;16.20;;;12.07;;
11537;SDS011;50159;49.426;11.182;2022-12-07T10:14:09;14.50;;;11.40;;
11537;SDS011;50159;49.426;11.182;2022-12-07T10:19:17;11.33;;;9.53;;
11537;SDS011;50159;49.426;11.182;2022-12-07T10:24:37;12.87;;;10.30;;
11537;SDS011;50159;49.426;11.182;2022-12-07T10:27:20;13.37;;;9.87;;
11537;SDS011;50159;49.426;11.182;2022-12-07T10:29:55;32.73;;;20.67;;
11537;SDS011;50159;49.426;11.182;2022-12-07T10:32:29;29.27;;;18.23;;
11537;SDS011;50159;49.426;11.182;2022-12-07T10:37:57;18.17;;;11.97;;
11537;SDS011;50159;49.426;11.182;2022-12-07T10:43:00;14.97;;;11.67;;
11537;SDS011;50159;49.426;11.182;2022-12-07T10:48:55;13.40;;;10.40;;
11537;SDS011;50159;49.426;11.182;2022-12-07T10:51:43;12.43;;;9.17;;
11537;SDS011;50159;49.426;11.182;2022-12-07T10:54:44;13.80;;;10.37;;
11537;SDS011;50159;49.426;11.182;2022-12-07T10:57:49;14.43;;;11.47;;
11537;SDS011;50159;49.426;11.182;2022-12-07T11:00:25;16.27;;;11.60;;
11537;SDS011;50159;49.426;11.182;2022-12-07T11:12:33;11.50;;;9.73;;
11537;SDS011;50159;49.426;11.182;2022-12-07T11:15:24;12.37;;;9.83;;
11537;SDS011;50159;49.426;11.182;2022-12-07T11:18:04;9.77;;;8.60;;
11537;SDS011;50159;49.426;11.182;2022-12-07T11:20:55;10.40;;;9.37;;
11537;SDS011;50159;49.426;11.182;2022-12-07T11:29:46;12.00;;;9.90;;
11537;SDS011;50159;49.426;11.182;2022-12-07T11:32:58;10.67;;;9.23;;
11537;SDS011;50159;49.426;11.182;2022-12-07T11:35:54;13.17;;;9.03;;
11537;SDS011;50159;49.426;11.182;2022-12-07T11:38:41;11.10;;;9.83;;
11537;SDS011;50159;49.426;11.182;2022-12-07T11:41:23;12.03;;;9.40;;
11537;SDS011;50159;49.426;11.182;2022-12-07T11:44:06;11.83;;;9.93;;
11537;SDS011;50159;49.426;11.182;2022-12-07T11:47:00;10.20;;;8.90;;
11537;SDS011;50159;49.426;11.182;2022-12-07T11:50:05;11.73;;;9.37;;
11537;SDS011;50159;49.426;11.182;2022-12-07T11:55:22;11.90;;;9.90;;
11537;SDS011;50159;49.426;11.182;2022-12-07T12:06:36;11.90;;;10.40;;
11537;SDS011;50159;49.426;11.182;2022-12-07T12:09:17;13.93;;;10.50;;
11537;SDS011;50159;49.426;11.182;2022-12-07T12:20:54;12.37;;;9.63;;
11537;SDS011;50159;49.426;11.182;2022-12-07T12:26:15;12.20;;;10.37;;
11537;SDS011;50159;49.426;11.182;2022-12-07T12:28:50;13.63;;;10.30;;
11537;SDS011;50159;49.426;11.182;2022-12-07T12:36:19;13.20;;;9.63;;
11537;SDS011;50159;49.426;11.182;2022-12-07T12:47:03;10.73;;;9.63;;
11537;SDS011;50159;49.426;11.182;2022-12-07T12:50:19;12.47;;;9.70;;
11537;SDS011;50159;49.426;11.182;2022-12-07T12:52:49;10.93;;;9.53;;
11537;SDS011;50159;49.426;11.182;2022-12-07T12:55:30;10.93;;;9.63;;
11537;SDS011;50159;49.426;11.182;2022-12-07T12:59:17;11.67;;;10.40;;
11537;SDS011;50159;49.426;11.182;2022-12-07T13:01:46;10.00;;;8.60;;
11537;SDS011;50159;49.426;11.182;2022-12-07T13:04:21;9.17;;;8.27;;
11537;SDS011;50159;49.426;11.182;2022-12-07T13:07:01;10.13;;;9.07;;
11537;SDS011;50159;49.426;11.182;2022-12-07T13:09:31;11.10;;;9.50;;
11537;SDS011;50159;49.426;11.182;2022-12-07T13:12:02;11.27;;;9.07;;
11537;SDS011;50159;49.426;11.182;2022-12-07T13:14:52;8.67;;;7.87;;
11537;SDS011;50159;49.426;11.182;2022-12-07T13:19:58;10.03;;;9.03;;
11537;SDS011;50159;49.426;11.182;2022-12-07T13:24:58;17.93;;;11.23;;
11537;SDS011;50159;49.426;11.182;2022-12-07T13:28:00;12.53;;;9.53;;
11537;SDS011;50159;49.426;11.182;2022-12-07T13:30:43;15.13;;;11.63;;
11537;SDS011;50159;49.426;11.182;2022-12-07T13:33:28;14.17;;;10.10;;
11537;SDS011;50159;49.426;11.182;2022-12-07T13:35:56;13.70;;;10.33;;
11537;SDS011;50159;49.426;11.182;2022-12-07T13:38:29;11.63;;;9.50;;
11537;SDS011;50159;49.426;11.182;2022-12-07T13:41:18;10.90;;;9.00;;
11537;SDS011;50159;49.426;11.182;2022-12-07T13:43:49;10.63;;;8.50;;
11537;SDS011;50159;49.426;11.182;2022-12-07T13:46:32;15.67;;;9.07;;
11537;SDS011;50159;49.426;11.182;2022-12-07T13:49:23;13.27;;;9.20;;
11537;SDS011;50159;49.426;11.182;2022-12-07T13:52:08;12.53;;;9.87;;
11537;SDS011;50159;49.426;11.182;2022-12-07T13:57:31;11.27;;;9.60;;
11537;SDS011;50159;49.426;11.182;2022-12-07T14:00:05;9.63;;;8.23;;
11537;SDS011;50159;49.426;11.182;2022-12-07T14:02:54;11.40;;;9.00;;
11537;SDS011;50159;49.426;11.182;2022-12-07T14:07:57;9.20;;;8.17;;
11537;SDS011;50159;49.426;11.182;2022-12-07T14:13:29;11.73;;;9.03;;
11537;SDS011;50159;49.426;11.182;2022-12-07T14:19:03;14.13;;;11.63;;
11537;SDS011;50159;49.426;11.182;2022-12-07T14:22:05;16.57;;;11.33;;
11537;SDS011;50159;49.426;11.182;2022-12-07T14:24:43;13.80;;;10.90;;
11537;SDS011;50159;49.426;11.182;2022-12-07T14:27:18;15.77;;;13.73;;
11537;SDS011;50159;49.426;11.182;2022-12-07T14:29:51;20.63;;;11.77;;
11537;SDS011;50159;49.426;11.182;2022-12-07T14:37:36;16.93;;;12.37;;
11537;SDS011;50159;49.426;11.182;2022-12-07T14:40:06;12.87;;;10.77;;
11537;SDS011;50159;49.426;11.182;2022-12-07T14:42:34;14.57;;;10.40;;
11537;SDS011;50159;49.426;11.182;2022-12-07T14:45:01;13.77;;;10.23;;
11537;SDS011;50159;49.426;11.182;2022-12-07T14:47:28;12.37;;;9.77;;
11537;SDS011;50159;49.426;11.182;2022-12-07T14:50:17;14.00;;;11.23;;
11537;SDS011;50159;49.426;11.182;2022-12-07T14:52:48;16.80;;;13.77;;
11537;SDS011;50159;49.426;11.182;2022-12-07T14:55:41;16.67;;;12.67;;
11537;SDS011;50159;49.426;11.182;2022-12-07T14:58:12;15.07;;;10.90;;
11537;SDS011;50159;49.426;11.182;2022-12-07T15:00:41;15.70;;;12.07;;
11537;SDS011;50159;49.426;11.182;2022-12-07T15:03:09;12.83;;;10.47;;
11537;SDS011;50159;49.426;11.182;2022-12-07T15:05:36;13.40;;;11.03;;
11537;SDS011;50159;49.426;11.182;2022-12-07T15:08:03;11.23;;;9.23;;
11537;SDS011;50159;49.426;11.182;2022-12-07T15:10:32;16.40;;;11.37;;
11537;SDS011;50159;49.426;11.182;2022-12-07T15:13:01;12.53;;;9.47;;
11537;SDS011;50159;49.426;11.182;2022-12-07T15:15:48;12.67;;;8.97;;
11537;SDS011;50159;49.426;11.182;2022-12-07T15:18:17;12.20;;;9.30;;
11537;SDS011;50159;49.426;11.182;2022-12-07T15:20:45;9.83;;;8.83;;
11537;SDS011;50159;49.426;11.182;2022-12-07T15:23:13;10.07;;;8.27;;
11537;SDS011;50159;49.426;11.182;2022-12-07T15:25:40;8.73;;;7.77;;
11537;SDS011;50159;49.426;11.182;2022-12-07T15:28:11;8.53;;;7.50;;
11537;SDS011;50159;49.426;11.182;2022-12-07T15:30:39;9.93;;;7.20;;
11537;SDS011;50159;49.426;11.182;2022-12-07T15:33:11;8.93;;;7.70;;
11537;SDS011;50159;49.426;11.182;2022-12-07T15:35:40;8.30;;;7.57;;
11537;SDS011;50159;49.426;11.182;2022-12-07T15:38:11;8.43;;;7.60;;
11537;SDS011;50159;49.426;11.182;2022-12-07T15:40:38;13.93;;;8.60;;
11537;SDS011;50159;49.426;11.182;2022-12-07T15:43:07;9.77;;;8.77;;
11537;SDS011;50159;49.426;11.182;2022-12-07T15:45:55;10.23;;;8.03;;
11537;SDS011;50159;49.426;11.182;2022-12-07T15:48:22;9.67;;;8.33;;
11537;SDS011;50159;49.426;11.182;2022-12-07T15:51:00;11.63;;;8.70;;
11537;SDS011;50159;49.426;11.182;2022-12-07T15:53:32;12.23;;;9.73;;
11537;SDS011;50159;49.426;11.182;2022-12-07T15:56:00;10.90;;;9.20;;
11537;SDS011;50159;49.426;11.182;2022-12-07T15:58:27;14.33;;;10.90;;
11537;SDS011;50159;49.426;11.182;2022-12-07T16:00:54;14.00;;;10.60;;
11537;SDS011;50159;49.426;11.182;2022-12-07T16:03:20;13.60;;;10.47;;
11537;SDS011;50159;49.426;11.182;2022-12-07T16:05:50;16.97;;;11.83;;
11537;SDS011;50159;49.426;11.182;2022-12-07T16:08:19;11.93;;;10.53;;
11537;SDS011;50159;49.426;11.182;2022-12-07T16:10:46;14.13;;;11.03;;
11537;SDS011;50159;49.426;11.182;2022-12-07T16:13:12;13.60;;;11.37;;
11537;SDS011;50159;49.426;11.182;2022-12-07T16:15:40;16.40;;;12.57;;
11537;SDS011;50159;49.426;11.182;2022-12-07T16:18:07;15.23;;;11.40;;
11537;SDS011;50159;49.426;11.182;2022-12-07T16:20:35;14.70;;;11.93;;
11537;SDS011;50159;49.426;11.182;2022-12-07T16:23:01;16.03;;;11.07;;
11537;SDS011;50159;49.426;11.182;2022-12-07T16:25:28;18.57;;;12.40;;
11537;SDS011;50159;49.426;11.182;2022-12-07T16:27:55;15.90;;;11.47;;
11537;SDS011;50159;49.426;11.182;2022-12-07T16:30:22;14.93;;;11.17;;
11537;SDS011;50159;49.426;11.182;2022-12-07T16:32:48;14.00;;;11.23;;
11537;SDS011;50159;49.426;11.182;2022-12-07T16:35:15;16.13;;;9.93;;
11537;SDS011;50159;49.426;11.182;2022-12-07T16:37:42;16.67;;;13.53;;
11537;SDS011;50159;49.426;11.182;2022-12-07T16:40:09;20.27;;;14.57;;
11537;SDS011;50159;49.426;11.182;2022-12-07T16:42:37;17.33;;;12.83;;
11537;SDS011;50159;49.426;11.182;2022-12-07T16:45:04;17.87;;;13.27;;
11537;SDS011;50159;49.426;11.182;2022-12-07T16:47:31;18.80;;;13.33;;
11537;SDS011;50159;49.426;11.182;2022-12-07T16:49:58;15.80;;;12.47;;
11537;SDS011;50159;49.426;11.182;2022-12-07T16:52:25;15.83;;;11.87;;
11537;SDS011;50159;49.426;11.182;2022-12-07T16:54:52;20.03;;;13.80;;
11537;SDS011;50159;49.426;11.182;2022-12-07T16:57:18;15.70;;;12.13;;